Latest Weather Observations for Ballarat

IDV60801

Issued at 6:31 pm EST Thursday 3 September 2015 (issued every 30 minutes, with the page automatically refreshed every 10 minutes)

About weather observations | Map of weather stations | Latest weather observations for VIC | Other Formats
Station Details ID: 089002 Name: BALLARAT AERODROME Lat: -37.51 Lon: 143.79 Height: 435.2 m
Data from the previous 72 hours. | See also: Recent months at Ballarat
Date/Time
EST
Temp
°C
App
Temp
°C
Dew
Point
Rel
Hum
%
Delta-T
°C
Wind Press
QNH
hPa
Press
MSL
hPa
Rain
since 9 am
mm
Dir
 
Spd
km/h
Gust
km/h
Spd
kts
Gust
kts
03/06:30pm 8.0 4.7 7.9 99 0.0 SSW 15 26 8 14 1020.6 1020.9 0.8
03/06:00pm 8.1 4.0 8.0 99 0.0 S 19 26 10 14 1020.0 1020.4 0.8
03/05:38pm 8.4 3.8 8.3 99 0.0 S 22 32 12 17 1019.6 1019.9 0.8
03/05:30pm 8.4 4.2 8.3 99 0.0 S 20 28 11 15 1019.4 1019.7 0.8
03/05:27pm 8.3 4.1 8.2 99 0.0 S 20 28 11 15 1019.4 1019.7 0.8
03/05:12pm 8.4 3.8 8.3 99 0.0 S 22 30 12 16 1019.2 1019.5 0.6
03/05:00pm 8.5 3.6 8.4 99 0.0 SSE 24 32 13 17 1019.0 1019.3 0.2
03/04:30pm 9.4 5.4 9.1 98 0.2 S 20 28 11 15 1018.6 1018.9 0.0
03/04:00pm 9.1 4.3 9.0 99 0.1 SSE 24 33 13 18 1018.3 1018.6 0.0
03/03:35pm 9.4 5.1 9.3 99 0.1 SSE 22 28 12 15 1017.6 1017.9 0.0
03/03:30pm 9.6 5.3 9.5 99 0.1 SSE 22 28 12 15 1017.6 1017.9 0.0
03/03:00pm 9.2 3.7 9.1 99 0.1 S 28 37 15 20 1017.2 1017.5 0.0
03/02:58pm 9.3 3.8 9.2 99 0.1 S 28 37 15 20 1017.1 1017.4 0.0
03/02:46pm 9.4 3.9 9.3 99 0.1 S 28 35 15 19 1016.9 1017.2 0.0
03/02:30pm 9.5 4.8 9.2 98 0.2 SSE 24 35 13 19 1016.7 1017.0 0.0
03/02:00pm 10.7 5.5 10.4 98 0.2 SSE 28 35 15 19 1016.3 1016.6 0.0
03/01:59pm 10.3 5.0 10.0 98 0.2 SSE 28 35 15 19 1016.3 1016.6 0.0
03/01:30pm 10.5 6.8 10.3 99 0.1 S 20 32 11 17 1016.2 1016.5 0.0
03/01:13pm 10.0 5.8 9.7 98 0.2 S 22 30 12 16 1016.2 1016.5 0.0
03/01:06pm 9.8 5.2 9.7 99 0.1 S 24 30 13 16 1016.2 1016.5 0.0
03/01:00pm 9.8 5.6 9.7 99 0.1 S 22 32 12 17 1016.2 1016.5 0.0
03/12:30pm 10.3 5.3 9.4 94 0.5 SSE 26 30 14 16 1016.1 1016.4 0.0
03/12:23pm 10.5 5.5 9.6 94 0.5 S 26 33 14 18 1016.1 1016.4 0.0
03/12:00pm 10.5 4.9 8.6 88 1.0 S 28 37 15 20 1016.1 1016.4 0.0
03/11:30am 11.3 4.7 8.7 84 1.3 S 33 44 18 24 1015.5 1015.8 0.0
03/11:00am 11.5 4.9 8.7 83 1.4 S 33 43 18 23 1015.1 1015.4 0.0
03/10:30am 11.2 4.5 9.5 89 0.9 S 35 46 19 25 1014.8 1015.1 0.0
03/10:00am 10.0 3.8 9.4 96 0.3 S 32 43 17 23 1014.4 1014.7 0.0
03/09:30am 10.0 4.7 9.7 98 0.2 S 28 35 15 19 1014.1 1014.4 0.0
03/09:00am 9.1 3.9 9.0 99 0.1 S 26 35 14 19 1013.5 1013.7 5.4
03/08:30am 9.0 4.2 8.9 99 0.1 S 24 33 13 18 1012.8 1013.1 5.4
03/08:00am 8.4 4.4 8.4 100 0.0 S 19 28 10 15 1012.1 1012.4 5.4
03/07:47am 8.3 4.3 8.3 100 0.0 S 19 26 10 14 1011.7 1011.9 5.4
03/07:30am 8.3 4.1 8.3 100 0.0 S 20 28 11 15 1011.4 1011.6 5.4
03/07:00am 8.0 3.9 8.0 100 0.0 S 19 28 10 15 1010.9 1011.1 5.4
03/06:56am 8.0 4.3 8.0 100 0.0 S 17 22 9 12 1010.7 1011.0 5.4
03/06:30am 7.9 4.2 7.9 100 0.0 SSE 17 24 9 13 1010.0 1010.2 5.4
03/06:26am 7.9 3.8 7.9 100 0.0 SSE 19 24 10 13 1010.0 1010.2 5.4
03/06:00am 7.9 2.9 7.9 100 0.0 SSE 24 32 13 17 1009.4 1009.6 5.4
03/05:30am 8.0 3.4 8.0 100 0.0 SSE 22 28 12 15 1009.0 1009.2 5.4
03/05:16am 7.9 3.6 7.9 100 0.0 SSE 20 28 11 15 1008.9 1009.1 5.4
03/05:00am 7.9 3.6 7.9 100 0.0 SSE 20 28 11 15 1008.7 1008.9 5.4
03/04:30am 7.9 3.2 7.9 100 0.0 S 22 30 12 16 1008.4 1008.6 5.2
03/04:00am 7.9 4.6 7.9 100 0.0 SSE 15 19 8 10 1007.8 1008.0 4.6
03/03:40am 7.9 4.2 7.9 100 0.0 S 17 19 9 10 1007.5 1007.7 4.6
03/03:30am 8.0 4.7 8.0 100 0.0 S 15 19 8 10 1007.4 1007.6 4.6
03/03:00am 8.1 5.6 8.1 100 0.0 SSE 11 15 6 8 1007.2 1007.4 4.6
03/02:46am 8.1 5.6 8.1 100 0.0 SSE 11 15 6 8 1007.1 1007.3 4.6
03/02:30am 8.1 5.6 8.1 100 0.0 SSE 11 15 6 8 1007.1 1007.3 4.6
03/02:00am 8.2 5.3 8.2 100 0.0 SSE 13 15 7 8 1007.1 1007.3 4.6
03/01:30am 8.2 5.3 8.1 99 0.0 SSE 13 15 7 8 1007.0 1007.2 4.6
03/01:00am 8.4 5.9 8.3 99 0.0 SE 11 13 6 7 1006.8 1007.0 4.6
03/12:30am 8.5 6.0 8.4 99 0.0 SE 11 15 6 8 1006.7 1006.9 4.6
03/12:00am 8.5 5.7 8.4 99 0.0 ESE 13 17 7 9 1006.7 1006.9 4.6
 
Date/Time
EST
Temp
°C
App
Temp
°C
Dew
Point
Rel
Hum
%
Delta-T
°C
Wind Press
QNH
hPa
Press
MSL
hPa
Rain
since 9 am
mm
Dir
 
Spd
km/h
Gust
km/h
Spd
kts
Gust
kts
02/11:30pm 8.5 5.7 8.4 99 0.0 E 13 17 7 9 1006.7 1006.9 4.6
02/11:00pm 8.6 5.8 8.5 99 0.0 ESE 13 17 7 9 1006.8 1007.0 4.6
02/10:30pm 8.6 6.2 8.5 99 0.0 ENE 11 15 6 8 1007.0 1007.2 4.4
02/10:00pm 8.9 6.9 8.6 98 0.1 E 9 13 5 7 1006.8 1007.0 4.0
02/09:30pm 9.0 8.7 8.7 98 0.1 CALM 0 6 0 3 1007.0 1007.2 4.0
02/09:00pm 9.0 7.6 8.7 98 0.2 SE 6 9 3 5 1006.8 1007.0 3.8
02/08:30pm 9.4 7.9 9.1 98 0.2 SE 7 15 4 8 1006.7 1006.9 3.8
02/08:00pm 9.6 7.4 9.3 98 0.2 ESE 11 19 6 10 1006.5 1006.7 3.8
02/07:37pm 9.5 8.2 9.2 98 0.2 S 6 13 3 7 1006.5 1006.7 3.8
02/07:30pm 9.6 8.1 9.3 98 0.2 S 7 13 4 7 1006.6 1006.8 3.8
02/07:00pm 9.2 7.7 9.1 99 0.1 S 7 13 4 7 1006.3 1006.5 3.8
02/06:43pm 8.9 6.9 8.8 99 0.0 SSW 9 15 5 8 1006.0 1006.1 3.8
02/06:30pm 8.6 6.2 8.6 100 0.0 SE 11 19 6 10 1006.1 1006.2 3.8
02/06:00pm 8.5 5.7 8.5 100 0.0 E 13 15 7 8 1006.3 1006.5 3.2
02/05:30pm 8.7 5.9 8.6 99 0.0 N 13 17 7 9 1007.0 1007.2 2.8
02/05:00pm 8.9 5.4 8.8 99 0.1 N 17 22 9 12 1007.1 1007.3 1.6
02/04:30pm 9.1 5.6 8.8 98 0.2 N 17 20 9 11 1007.0 1007.2 0.8
02/04:00pm 9.5 6.1 9.2 98 0.2 N 17 22 9 12 1007.0 1007.2 0.2
02/03:30pm 10.6 5.1 7.5 81 1.5 N 26 43 14 23 1007.0 1007.2 0.0
02/03:00pm 12.6 5.7 4.6 58 3.8 NNE 30 41 16 22 1006.4 1006.6 0.0
02/02:30pm 13.3 6.7 5.9 61 3.6 NE 30 39 16 21 1006.0 1006.1 0.0
02/02:00pm 13.1 6.6 4.5 56 4.1 NE 28 37 15 20 1006.3 1006.5 0.0
02/01:30pm 12.9 6.3 6.0 63 3.3 NNE 30 37 16 20 1006.8 1007.0 0.0
02/01:00pm 13.4 5.1 4.0 53 4.4 NNE 37 48 20 26 1007.4 1007.6 0.0
02/12:30pm 12.8 5.5 4.5 57 3.9 NNE 32 44 17 24 1008.1 1008.4 0.0
02/12:00pm 12.1 6.5 5.3 63 3.2 NNE 24 37 13 20 1008.9 1009.1 0.0
02/11:30am 11.1 4.2 4.8 65 2.9 NNE 30 39 16 21 1009.3 1009.5 0.0
02/11:00am 10.6 4.5 4.9 68 2.7 NNE 26 35 14 19 1009.8 1010.0 0.0
02/10:30am 10.3 4.2 4.9 69 2.5 NNE 26 35 14 19 1010.1 1010.4 0.0
02/10:00am 10.6 2.8 4.7 67 2.7 NNE 35 50 19 27 1010.4 1010.7 0.0
02/09:51am 10.7 3.8 4.4 65 2.9 NNE 30 48 16 26 1010.3 1010.6 0.0
02/09:30am 10.0 3.9 4.6 69 2.5 NNE 26 37 14 20 1010.7 1011.0 0.0
02/09:00am 9.7 4.4 4.9 72 2.2 NE 22 30 12 16 1011.1 1011.3 0.0
02/08:30am 9.0 2.4 4.2 72 2.2 NE 28 39 15 21 1011.4 1011.6 0.0
02/08:00am 8.3 1.3 4.1 75 1.9 NE 30 39 16 21 1011.3 1011.5 0.0
02/07:30am 7.8 0.8 4.2 78 1.6 NNE 30 37 16 20 1011.3 1011.5 0.0
02/07:00am 7.2 0.9 3.8 79 1.5 NNE 26 32 14 17 1011.4 1011.6 0.0
02/06:30am 7.5 1.2 3.6 76 1.7 NNE 26 37 14 20 1011.2 1011.4 0.0
02/06:00am 8.2 1.1 3.7 73 2.0 NNE 30 41 16 22 1011.4 1011.6 0.0
02/05:30am 8.2 1.5 3.9 74 1.9 NNE 28 35 15 19 1011.4 1011.6 0.0
02/05:00am 7.8 1.9 3.8 76 1.8 NNE 24 32 13 17 1011.5 1011.7 0.0
02/04:30am 8.2 3.1 4.0 75 1.9 NNE 20 28 11 15 1011.7 1011.9 0.0
02/04:00am 8.3 2.4 3.9 74 2.0 NNE 24 33 13 18 1011.7 1011.9 0.0
02/03:30am 8.1 1.9 4.1 76 1.8 NNE 26 35 14 19 1012.1 1012.4 0.0
02/03:00am 8.1 2.3 4.3 77 1.7 NNE 24 37 13 20 1012.2 1012.5 0.0
02/02:30am 8.5 2.3 4.3 75 1.9 NNE 26 39 14 21 1012.2 1012.5 0.0
02/02:00am 7.8 1.9 4.0 77 1.7 NE 24 33 13 18 1012.6 1012.9 0.0
02/01:30am 7.7 2.2 4.1 78 1.6 NNE 22 30 12 16 1012.9 1013.2 0.0
02/01:00am 8.3 1.3 3.9 74 2.0 NNE 30 37 16 20 1013.0 1013.3 0.0
02/12:30am 8.0 1.7 4.0 76 1.8 NNE 26 35 14 19 1013.4 1013.6 0.0
02/12:00am 7.7 1.8 3.7 76 1.8 NNE 24 30 13 16 1013.4 1013.6 0.0
 
Date/Time
EST
Temp
°C
App
Temp
°C
Dew
Point
Rel
Hum
%
Delta-T
°C
Wind Press
QNH
hPa
Press
MSL
hPa
Rain
since 9 am
mm
Dir
 
Spd
km/h
Gust
km/h
Spd
kts
Gust
kts
01/11:30pm 8.0 2.1 3.8 75 1.9 NNE 24 32 13 17 1013.4 1013.6 0.0
01/11:00pm 8.4 2.6 4.2 75 1.9 NNE 24 32 13 17 1013.5 1013.7 0.0
01/10:30pm 7.8 2.9 4.0 77 1.7 NNE 19 22 10 12 1013.5 1013.7 0.0
01/10:00pm 8.0 2.9 4.2 77 1.7 NNE 20 22 11 12 1013.5 1013.7 0.0
01/09:30pm 8.3 3.3 4.5 77 1.7 NNE 20 24 11 13 1013.5 1013.7 0.0
01/09:00pm 8.6 3.2 4.6 76 1.8 NNE 22 26 12 14 1013.6 1013.8 0.0
01/08:30pm 8.2 3.3 5.0 80 1.5 NNE 20 24 11 13 1013.7 1013.9 0.0
01/08:00pm 7.4 3.4 5.0 85 1.1 NE 15 19 8 10 1013.6 1013.8 0.0
01/07:30pm 7.1 3.5 4.8 85 1.0 NNE 13 15 7 8 1013.5 1013.7 0.0
01/07:00pm 7.5 3.9 5.0 84 1.1 NNE 13 17 7 9 1013.3 1013.5 0.0
01/06:30pm 8.2 4.6 4.8 79 1.5 NNE 13 15 7 8 1013.1 1013.4 0.0
01/06:00pm 9.5 5.5 5.1 74 2.0 NNE 15 19 8 10 1012.9 1013.2 0.0
01/05:30pm 11.1 6.8 5.2 67 2.8 NNE 17 20 9 11 1012.7 1013.0 0.0
01/05:00pm 12.2 7.9 5.1 62 3.4 N 17 20 9 11 1012.5 1012.8 0.0
01/04:30pm 11.9 7.6 5.3 64 3.1 N 17 20 9 11 1012.7 1013.0 0.0
01/04:00pm 12.3 8.4 5.2 62 3.4 N 15 20 8 11 1013.0 1013.3 0.0
01/03:30pm 11.7 6.9 4.4 61 3.4 N 19 22 10 12 1013.3 1013.5 0.0
01/03:00pm 12.1 7.8 3.3 55 4.0 NNW 15 22 8 12 1013.7 1013.9 0.0
01/02:30pm 13.0 8.7 5.2 59 3.7 N 17 24 9 13 1013.7 1013.9 0.0
01/02:00pm 12.1 7.7 4.8 61 3.4 N 17 24 9 13 1013.9 1014.1 0.0
01/01:30pm 11.8 7.8 4.8 62 3.3 N 15 24 8 13 1014.3 1014.6 0.0
01/01:00pm 10.9 6.8 4.1 63 3.1 N 15 22 8 12 1014.7 1015.0 0.0
01/12:30pm 10.4 6.3 4.3 66 2.8 N 15 19 8 10 1015.1 1015.4 0.0
01/12:00pm 10.1 6.4 4.3 67 2.6 N 13 19 7 10 1015.4 1015.7 0.0
01/11:30am 9.2 4.7 4.0 70 2.3 N 17 24 9 13 1016.2 1016.5 0.0
01/11:00am 8.7 4.1 3.7 71 2.2 N 17 22 9 12 1016.4 1016.7 0.0
01/10:30am 7.7 2.4 2.8 71 2.1 N 20 26 11 14 1016.6 1016.9 0.0
01/10:00am 7.2 1.2 3.1 75 1.8 N 24 30 13 16 1016.7 1017.0 0.0
01/09:30am 6.6 1.5 4.3 85 1.0 N 20 24 11 13 1016.8 1017.4 0.0
01/09:00am 5.4 0.9 4.2 92 0.5 N 17 20 9 11 1016.6 1017.2 0.0
01/08:30am 3.8 0.3 3.7 99 0.0 N 11 15 6 8 1016.4 1017.0 0.0
01/08:00am 1.1 -2.4 1.0 99 0.0 N 9 11 5 6 1016.2 1016.8 0.0
01/07:30am -2.1 -6.1 -2.2 99 -0.1 N 9 13 5 7 1015.9 1016.5 0.0
01/07:12am -2.3 -5.9 -2.4 99 -0.1 N 7 9 4 5 1015.9 1016.5 0.0
01/07:00am -3.0 -6.5 -3.1 99 -0.1 N 6 9 3 5 1015.7 1016.3 0.0
01/06:30am -3.3 -5.7 -3.4 99 -0.1 CALM 0 0 0 0 1015.9 1016.5 0.0
01/06:02am -3.9 -7.5 -4.0 99 -0.1 N 6 7 3 4 1015.8 1016.4 0.0
01/06:00am -4.1 -7.8 -4.2 99 -0.1 N 6 7 3 4 1015.8 1016.4 0.0
01/05:36am -4.2 -8.1 -4.3 99 -0.1 N 7 7 4 4 1015.7 1016.3 0.0
01/05:30am -3.9 -7.5 -4.0 99 -0.1 N 6 7 3 4 1015.5 1016.2 0.0
01/05:00am -3.4 -5.8 -3.5 99 -0.1 CALM 0 0 0 0 1015.5 1016.2 0.0
01/04:30am -1.7 -3.9 -1.8 99 0.0 CALM 0 0 0 0 1015.4 1016.1 0.0
01/04:20am -2.0 -4.7 -2.1 99 -0.1 ESE 2 7 1 4 1015.4 1016.1 0.0
01/04:00am -1.5 -4.8 -1.6 99 0.0 SSE 6 7 3 4 1015.8 1016.4 0.0
01/03:30am -0.7 -4.5 -0.8 99 0.0 SE 9 11 5 6 1016.1 1016.7 0.0
01/03:00am -1.1 -5.3 -1.2 99 0.0 SE 11 13 6 7 1016.4 1017.0 0.0
01/02:31am -2.3 -6.3 -2.4 99 -0.1 SE 9 9 5 5 1016.9 1017.6 0.0
01/02:30am -2.5 -6.5 -2.6 99 -0.1 SE 9 9 5 5 1016.9 1017.6 0.0
01/02:26am -2.6 -6.3 -2.7 99 -0.1 SE 7 9 4 5 1017.0 1017.7 0.0
01/02:00am -3.2 -5.6 -3.3 99 -0.1 CALM 0 0 0 0 1017.4 1018.1 0.0
01/01:33am -2.3 -4.6 -2.4 99 -0.1 CALM 0 0 0 0 1017.6 1018.3 0.0
01/01:30am -2.2 -4.5 -2.3 99 -0.1 CALM 0 0 0 0 1017.7 1018.4 0.0
01/01:18am -2.1 -4.4 -2.2 99 -0.1 CALM 0 2 0 1 1017.7 1018.4 0.0
01/01:00am -1.4 -4.9 -1.5 99 0.0 S 7 9 4 5 1017.6 1018.3 0.0
01/12:30am -0.8 -4.1 -0.9 99 0.0 SE 6 7 3 4 1017.7 1018.4 0.0
01/12:16am -1.6 -5.0 -1.9 98 0.0 SE 6 6 3 3 1017.7 1018.4 0.0
01/12:00am -1.0 -4.3 -1.3 98 0.1 SE 6 7 3 4 1017.8 1018.5 0.0
 
Date/Time
EST
Temp
°C
App
Temp
°C
Dew
Point
Rel
Hum
%
Delta-T
°C
Wind Press
QNH
hPa
Press
MSL
hPa
Rain
since 9 am
mm
Dir
 
Spd
km/h
Gust
km/h
Spd
kts
Gust
kts
31/11:51pm -1.0 -4.3 -1.3 98 0.1 SE 6 7 3 4 1017.9 1018.6 0.0
31/11:30pm -0.6 -2.7 -0.9 98 0.1 CALM 0 4 0 2 1018.2 1018.8 0.0
31/11:00pm 0.2 -2.9 -0.1 98 0.1 SSE 6 7 3 4 1018.4 1019.0 0.0
31/10:30pm 1.2 -2.4 0.9 98 0.1 S 9 9 5 5 1018.5 1019.1 0.0
31/10:00pm 1.8 -1.1 1.5 98 0.1 SE 6 9 3 5 1018.7 1019.3 0.0
31/09:30pm 1.6 -1.9 1.3 98 0.1 S 9 11 5 6 1018.5 1019.1 0.0
31/09:00pm 2.3 -1.1 2.0 98 0.1 S 9 11 5 6 1018.5 1019.1 0.0
31/08:30pm 1.7 -1.4 1.1 96 0.2 SSE 7 11 4 6 1018.4 1019.0 0.0
31/08:00pm 2.2 -1.6 1.6 96 0.2 S 11 13 6 7 1018.2 1018.8 0.0
31/07:30pm 3.0 -0.8 1.7 91 0.5 SSW 11 13 6 7 1018.3 1018.9 0.0
31/07:00pm 3.8 0.4 1.8 87 0.8 S 9 11 5 6 1018.0 1018.7 0.0

Other Formats:

Comma delimited format used in spreadsheet applications
http://www.bom.gov.au/fwo/IDV60801/IDV60801.94852.axf

JavaScript Object Notation format (JSON) in row-major order
http://www.bom.gov.au/fwo/IDV60801/IDV60801.94852.json